Cap Guillaume — SZXO — position and weather

sailwx.info

Track history (hours):
 
Tides and Currents Weather Stations Pressure Air Temp Water Temp Dewpoint Dewpoint Depression Visibility Wind Speed Wind Dir Waves Ship Positions

Cap Guillaume

Last reported at 2018-Feb-24 15:58 UTC. Time now 2018-Feb-24 18:04 UTC.
Position N 36°27' E 014°42'.

Length 274 m; draft 16.7 m.

Type: Tanker. MMSI: 240556000.

Date/timePositionNaut miles runAvg speedWind from/ knotsBaromVisibWave heightAir tempDewpointWater temp
2018-Feb-24 15:58N 36°27' E 014°42'612.8
2018-Feb-24 15:30N 36°27' E 014°35'612.4
2018-Feb-24 14:59N 36°26' E 014°27'612.4
2018-Feb-24 14:30N 36°25' E 014°20'712.3
2018-Feb-24 13:55N 36°24' E 014°11'512.4
2018-Feb-24 13:29N 36°24' E 014°04'712.3
2018-Feb-24 12:54N 36°23' E 013°55'512.3
2018-Feb-24 12:30N 36°23' E 013°49'611.8
2018-Feb-24 11:58N 36°23' E 013°42'  
2018-Feb-21 09:08N 36°01' W 005°13'215.0
2018-Feb-21 09:00N 36°00' W 005°15'815.6
2018-Feb-21 08:30N 35°59' W 005°25'18112.7
2018-Feb-20 18:16N 36°27' W 009°07'512.3
2018-Feb-20 17:54N 36°28' W 009°12'2211.5
2018-Feb-20 16:00N 36°41' W 009°34'711.5
2018-Feb-20 15:25N 36°47' W 009°39'1111.9
2018-Feb-20 14:31N 36°57' W 009°42'112.0
2018-Feb-20 14:28N 36°57' W 009°42'1712.1
2018-Feb-20 13:05N 37°14' W 009°47'112.4
2018-Feb-20 12:58N 37°15' W 009°47'712.4
2018-Feb-20 12:24N 37°22' W 009°49'512.5
2018-Feb-20 12:01N 37°27' W 009°51'712.6
2018-Feb-20 11:27N 37°34' W 009°53'612.4
2018-Feb-20 10:56N 37°40' W 009°54'612.2
2018-Feb-20 10:26N 37°46' W 009°56'712.2
2018-Feb-20 09:53N 37°52' W 009°58'512.3
2018-Feb-20 09:30N 37°57' W 009°60'612.3
2018-Feb-20 09:00N 38°03' W 010°01'612.1
2018-Feb-20 08:30N 38°09' W 010°03'612.1
2018-Feb-20 08:00N 38°15' W 010°04'612.3
2018-Feb-20 07:30N 38°21' W 010°06'612.5
2018-Feb-20 07:00N 38°27' W 010°08'612.5
2018-Feb-20 06:30N 38°33' W 010°10'612.6
2018-Feb-20 06:00N 38°39' W 010°12'612.4
2018-Feb-20 05:30N 38°45' W 010°13'812.1
2018-Feb-20 04:51N 38°53' W 010°13'511.9
2018-Feb-20 04:29N 38°58' W 010°13'611.8
2018-Feb-20 03:58N 39°04' W 010°13'612.1
2018-Feb-20 03:29N 39°09' W 010°12'611.8
2018-Feb-20 03:01N 39°15' W 010°12'1211.9
2018-Feb-20 02:00N 39°27' W 010°12'612.3
2018-Feb-20 01:30N 39°33' W 010°12'  
2018-Feb-17 17:15N 49°18' W 004°46'8 9.7
2018-Feb-17 16:28N 49°21' W 004°36'810.3
2018-Feb-17 15:43N 49°25' W 004°26'2211.8
2018-Feb-17 13:51N 49°36' W 003°57'2313.3
2018-Feb-17 12:08N 49°48' W 003°26'212.8
2018-Feb-17 12:00N 49°49' W 003°24'612.7
2018-Feb-17 11:30N 49°52' W 003°16'1111.8
2018-Feb-17 10:32N 49°58' W 003°00'011.0
2018-Feb-17 10:30N 49°58' W 002°60'510.6
2018-Feb-17 10:01N 49°60' W 002°52'710.1
2018-Feb-17 09:21N 50°02' W 002°43'4 9.5
2018-Feb-17 08:58N 50°03' W 002°37'31 9.8
2018-Feb-17 05:49N 50°11' W 001°50'412.4
2018-Feb-17 05:30N 50°12' W 001°45'713.2
2018-Feb-17 05:00N 50°14' W 001°35'714.0
2018-Feb-17 04:30N 50°16' W 001°24'714.7
2018-Feb-17 04:00N 50°18' W 001°13'3414.8
2018-Feb-17 01:44N 50°27' W 000°23'313.6
2018-Feb-17 01:30N 50°28' W 000°18'713.1
2018-Feb-17 01:01N 50°29' W 000°08'612.7
2018-Feb-17 00:30N 50°31' E 000°02'612.2
2018-Feb-17 00:01N 50°33' E 000°11'611.6
2018-Feb-16 23:30N 50°34' E 000°20'611.1
2018-Feb-16 23:00N 50°36' E 000°28'510.7
2018-Feb-16 22:30N 50°37' E 000°36'510.8
2018-Feb-16 22:01N 50°40' E 000°44'611.2
2018-Feb-16 21:31N 50°43' E 000°51'611.9
2018-Feb-16 21:01N 50°46' E 000°59'612.8
2018-Feb-16 20:31N 50°50' E 001°08'714.0
2018-Feb-16 20:00N 50°54' E 001°17'714.6
2018-Feb-16 19:30N 50°60' E 001°24'613.0
2018-Feb-16 19:01N 51°04' E 001°31'713.8
2018-Feb-16 18:31N 51°09' E 001°39'713.4
2018-Feb-16 18:00N 51°14' E 001°46'612.5
2018-Feb-16 17:30N 51°19' E 001°51'611.7
2018-Feb-16 17:00N 51°25' E 001°55'611.1
2018-Feb-16 16:30N 51°29' E 001°60'510.7
2018-Feb-16 16:00N 51°33' E 002°05'510.3
2018-Feb-16 15:30N 51°37' E 002°11'510.1
2018-Feb-16 15:01N 51°41' E 002°17'5 9.8
2018-Feb-16 14:30N 51°45' E 002°22'5 9.8
2018-Feb-16 13:57N 51°49' E 002°28'610.1
2018-Feb-16 13:24N 51°53' E 002°33'4 9.5
2018-Feb-16 12:57N 51°57' E 002°36'4612.0
2018-Feb-16 09:06N 52°41' E 003°01'1512.5
2018-Feb-16 07:55N 52°53' E 003°14'  
Track history (hours):
 
Tides and Currents Weather Stations Pressure Air Temp Water Temp Dewpoint Dewpoint Depression Visibility Wind Speed Wind Dir Waves Ship Positions

Cap Guillaume

Last reported at 2018-Feb-24 15:58 UTC. Time now 2018-Feb-24 18:04 UTC.
Position N 36°27' E 014°42'.

Length 274 m; draft 16.7 m.

Type: Tanker. MMSI: 240556000.

Date/timePositionNaut miles runAvg speedWind from/ knotsBaromVisibWave heightAir tempDewpointWater temp
2018-Feb-24 15:58N 36°27' E 014°42'612.8
2018-Feb-24 15:30N 36°27' E 014°35'612.4
2018-Feb-24 14:59N 36°26' E 014°27'612.4
2018-Feb-24 14:30N 36°25' E 014°20'712.3
2018-Feb-24 13:55N 36°24' E 014°11'512.4
2018-Feb-24 13:29N 36°24' E 014°04'712.3
2018-Feb-24 12:54N 36°23' E 013°55'512.3
2018-Feb-24 12:30N 36°23' E 013°49'611.8
2018-Feb-24 11:58N 36°23' E 013°42'  
2018-Feb-21 09:08N 36°01' W 005°13'215.0
2018-Feb-21 09:00N 36°00' W 005°15'815.6
2018-Feb-21 08:30N 35°59' W 005°25'18112.7
2018-Feb-20 18:16N 36°27' W 009°07'512.3
2018-Feb-20 17:54N 36°28' W 009°12'2211.5
2018-Feb-20 16:00N 36°41' W 009°34'711.5
2018-Feb-20 15:25N 36°47' W 009°39'1111.9
2018-Feb-20 14:31N 36°57' W 009°42'112.0
2018-Feb-20 14:28N 36°57' W 009°42'1712.1
2018-Feb-20 13:05N 37°14' W 009°47'112.4
2018-Feb-20 12:58N 37°15' W 009°47'712.4
2018-Feb-20 12:24N 37°22' W 009°49'512.5
2018-Feb-20 12:01N 37°27' W 009°51'712.6
2018-Feb-20 11:27N 37°34' W 009°53'612.4
2018-Feb-20 10:56N 37°40' W 009°54'612.2
2018-Feb-20 10:26N 37°46' W 009°56'712.2
2018-Feb-20 09:53N 37°52' W 009°58'512.3
2018-Feb-20 09:30N 37°57' W 009°60'612.3
2018-Feb-20 09:00N 38°03' W 010°01'612.1
2018-Feb-20 08:30N 38°09' W 010°03'612.1
2018-Feb-20 08:00N 38°15' W 010°04'612.3
2018-Feb-20 07:30N 38°21' W 010°06'612.5
2018-Feb-20 07:00N 38°27' W 010°08'612.5
2018-Feb-20 06:30N 38°33' W 010°10'612.6
2018-Feb-20 06:00N 38°39' W 010°12'612.4
2018-Feb-20 05:30N 38°45' W 010°13'812.1
2018-Feb-20 04:51N 38°53' W 010°13'511.9
2018-Feb-20 04:29N 38°58' W 010°13'611.8
2018-Feb-20 03:58N 39°04' W 010°13'612.1
2018-Feb-20 03:29N 39°09' W 010°12'611.8
2018-Feb-20 03:01N 39°15' W 010°12'1211.9
2018-Feb-20 02:00N 39°27' W 010°12'612.3
2018-Feb-20 01:30N 39°33' W 010°12'  
2018-Feb-17 17:15N 49°18' W 004°46'8 9.7
2018-Feb-17 16:28N 49°21' W 004°36'810.3
2018-Feb-17 15:43N 49°25' W 004°26'2211.8
2018-Feb-17 13:51N 49°36' W 003°57'2313.3
2018-Feb-17 12:08N 49°48' W 003°26'212.8
2018-Feb-17 12:00N 49°49' W 003°24'612.7
2018-Feb-17 11:30N 49°52' W 003°16'1111.8
2018-Feb-17 10:32N 49°58' W 003°00'011.0
2018-Feb-17 10:30N 49°58' W 002°60'510.6
2018-Feb-17 10:01N 49°60' W 002°52'710.1
2018-Feb-17 09:21N 50°02' W 002°43'4 9.5
2018-Feb-17 08:58N 50°03' W 002°37'31 9.8
2018-Feb-17 05:49N 50°11' W 001°50'412.4
2018-Feb-17 05:30N 50°12' W 001°45'713.2
2018-Feb-17 05:00N 50°14' W 001°35'714.0
2018-Feb-17 04:30N 50°16' W 001°24'714.7
2018-Feb-17 04:00N 50°18' W 001°13'3414.8
2018-Feb-17 01:44N 50°27' W 000°23'313.6
2018-Feb-17 01:30N 50°28' W 000°18'713.1
2018-Feb-17 01:01N 50°29' W 000°08'612.7
2018-Feb-17 00:30N 50°31' E 000°02'612.2
2018-Feb-17 00:01N 50°33' E 000°11'611.6
2018-Feb-16 23:30N 50°34' E 000°20'611.1
2018-Feb-16 23:00N 50°36' E 000°28'510.7
2018-Feb-16 22:30N 50°37' E 000°36'510.8
2018-Feb-16 22:01N 50°40' E 000°44'611.2
2018-Feb-16 21:31N 50°43' E 000°51'611.9
2018-Feb-16 21:01N 50°46' E 000°59'612.8
2018-Feb-16 20:31N 50°50' E 001°08'714.0
2018-Feb-16 20:00N 50°54' E 001°17'714.6
2018-Feb-16 19:30N 50°60' E 001°24'613.0
2018-Feb-16 19:01N 51°04' E 001°31'713.8
2018-Feb-16 18:31N 51°09' E 001°39'713.4
2018-Feb-16 18:00N 51°14' E 001°46'612.5
2018-Feb-16 17:30N 51°19' E 001°51'611.7
2018-Feb-16 17:00N 51°25' E 001°55'611.1
2018-Feb-16 16:30N 51°29' E 001°60'510.7
2018-Feb-16 16:00N 51°33' E 002°05'510.3
2018-Feb-16 15:30N 51°37' E 002°11'510.1
2018-Feb-16 15:01N 51°41' E 002°17'5 9.8
2018-Feb-16 14:30N 51°45' E 002°22'5 9.8
2018-Feb-16 13:57N 51°49' E 002°28'610.1
2018-Feb-16 13:24N 51°53' E 002°33'4 9.5
2018-Feb-16 12:57N 51°57' E 002°36'4612.0
2018-Feb-16 09:06N 52°41' E 003°01'1512.5
2018-Feb-16 07:55N 52°53' E 003°14'  

Dump ship's entire track history